sensor_id;sensor_type;location;lat;lon;timestamp;temperature;humidity
5834;DHT22;2943;48.012;10.968;2022-09-16T00:00:52;14.40;99.90
5834;DHT22;2943;48.012;10.968;2022-09-16T00:03:20;14.40;99.90
5834;DHT22;2943;48.012;10.968;2022-09-16T00:05:49;14.40;99.90
5834;DHT22;2943;48.012;10.968;2022-09-16T00:08:17;14.40;99.90
5834;DHT22;2943;48.012;10.968;2022-09-16T00:10:44;14.40;99.90
5834;DHT22;2943;48.012;10.968;2022-09-16T00:13:13;14.40;99.90
5834;DHT22;2943;48.012;10.968;2022-09-16T00:15:41;14.40;99.90
5834;DHT22;2943;48.012;10.968;2022-09-16T00:18:11;14.40;99.90
5834;DHT22;2943;48.012;10.968;2022-09-16T00:20:43;14.30;99.90
5834;DHT22;2943;48.012;10.968;2022-09-16T00:23:10;14.30;99.90
5834;DHT22;2943;48.012;10.968;2022-09-16T00:25:36;14.30;99.90
5834;DHT22;2943;48.012;10.968;2022-09-16T00:28:03;14.30;99.90
5834;DHT22;2943;48.012;10.968;2022-09-16T00:30:31;14.30;99.90
5834;DHT22;2943;48.012;10.968;2022-09-16T00:32:58;14.20;99.90
5834;DHT22;2943;48.012;10.968;2022-09-16T00:35:25;14.20;99.90
5834;DHT22;2943;48.012;10.968;2022-09-16T00:37:52;14.20;99.90
5834;DHT22;2943;48.012;10.968;2022-09-16T00:40:19;14.10;99.90
5834;DHT22;2943;48.012;10.968;2022-09-16T00:42:46;14.10;99.90
5834;DHT22;2943;48.012;10.968;2022-09-16T00:45:16;14.10;99.90
5834;DHT22;2943;48.012;10.968;2022-09-16T00:47:47;14.10;99.90
5834;DHT22;2943;48.012;10.968;2022-09-16T00:50:18;14.10;99.90
5834;DHT22;2943;48.012;10.968;2022-09-16T00:52:46;14.10;99.90
5834;DHT22;2943;48.012;10.968;2022-09-16T00:55:17;14.00;99.90
5834;DHT22;2943;48.012;10.968;2022-09-16T00:57:46;14.00;99.90
5834;DHT22;2943;48.012;10.968;2022-09-16T01:00:13;13.90;99.90
5834;DHT22;2943;48.012;10.968;2022-09-16T01:02:41;13.90;99.90
5834;DHT22;2943;48.012;10.968;2022-09-16T01:05:15;13.90;99.90
5834;DHT22;2943;48.012;10.968;2022-09-16T01:07:44;13.90;99.90
5834;DHT22;2943;48.012;10.968;2022-09-16T01:10:13;13.90;99.90
5834;DHT22;2943;48.012;10.968;2022-09-16T01:12:41;13.90;99.90
5834;DHT22;2943;48.012;10.968;2022-09-16T01:15:10;13.80;99.90
5834;DHT22;2943;48.012;10.968;2022-09-16T01:17:52;13.80;99.90
5834;DHT22;2943;48.012;10.968;2022-09-16T01:20:57;13.80;99.90
5834;DHT22;2943;48.012;10.968;2022-09-16T01:23:45;13.90;99.90
5834;DHT22;2943;48.012;10.968;2022-09-16T01:29:31;13.90;99.90
5834;DHT22;2943;48.012;10.968;2022-09-16T01:32:05;13.90;99.90
5834;DHT22;2943;48.012;10.968;2022-09-16T01:34:46;13.90;99.90
5834;DHT22;2943;48.012;10.968;2022-09-16T01:37:22;13.90;99.90
5834;DHT22;2943;48.012;10.968;2022-09-16T01:39:58;13.90;99.90
5834;DHT22;2943;48.012;10.968;2022-09-16T01:42:35;13.90;99.90
5834;DHT22;2943;48.012;10.968;2022-09-16T01:45:07;13.80;99.90
5834;DHT22;2943;48.012;10.968;2022-09-16T01:47:43;13.90;99.90
5834;DHT22;2943;48.012;10.968;2022-09-16T01:50:16;13.90;99.90
5834;DHT22;2943;48.012;10.968;2022-09-16T01:52:51;13.80;99.90
5834;DHT22;2943;48.012;10.968;2022-09-16T01:55:23;13.80;99.90
5834;DHT22;2943;48.012;10.968;2022-09-16T01:57:55;13.80;99.90
5834;DHT22;2943;48.012;10.968;2022-09-16T02:00:23;13.80;99.90
5834;DHT22;2943;48.012;10.968;2022-09-16T02:02:55;13.80;99.90
5834;DHT22;2943;48.012;10.968;2022-09-16T02:05:26;13.80;99.90
5834;DHT22;2943;48.012;10.968;2022-09-16T02:07:58;13.70;99.90
5834;DHT22;2943;48.012;10.968;2022-09-16T02:10:29;13.80;99.90
5834;DHT22;2943;48.012;10.968;2022-09-16T02:13:01;13.70;99.90
5834;DHT22;2943;48.012;10.968;2022-09-16T02:15:31;13.70;99.90
5834;DHT22;2943;48.012;10.968;2022-09-16T02:18:01;13.70;99.90
5834;DHT22;2943;48.012;10.968;2022-09-16T02:20:31;13.70;99.90
5834;DHT22;2943;48.012;10.968;2022-09-16T02:23:02;13.70;99.90
5834;DHT22;2943;48.012;10.968;2022-09-16T02:25:33;13.70;99.90
5834;DHT22;2943;48.012;10.968;2022-09-16T02:28:03;13.70;99.90
5834;DHT22;2943;48.012;10.968;2022-09-16T02:30:31;13.70;99.90
5834;DHT22;2943;48.012;10.968;2022-09-16T02:33:06;13.70;99.90
5834;DHT22;2943;48.012;10.968;2022-09-16T02:35:34;13.70;99.90
5834;DHT22;2943;48.012;10.968;2022-09-16T02:38:06;13.70;99.90
5834;DHT22;2943;48.012;10.968;2022-09-16T02:40:36;13.70;99.90
5834;DHT22;2943;48.012;10.968;2022-09-16T02:43:06;13.70;99.90
5834;DHT22;2943;48.012;10.968;2022-09-16T02:45:42;13.70;99.90
5834;DHT22;2943;48.012;10.968;2022-09-16T02:48:16;13.60;99.90
5834;DHT22;2943;48.012;10.968;2022-09-16T02:50:49;13.60;99.90
5834;DHT22;2943;48.012;10.968;2022-09-16T02:53:26;13.60;99.90
5834;DHT22;2943;48.012;10.968;2022-09-16T02:55:56;13.60;99.90
5834;DHT22;2943;48.012;10.968;2022-09-16T02:58:24;13.60;99.90
5834;DHT22;2943;48.012;10.968;2022-09-16T03:00:53;13.50;99.90
5834;DHT22;2943;48.012;10.968;2022-09-16T03:03:22;13.60;99.90
5834;DHT22;2943;48.012;10.968;2022-09-16T03:06:09;13.60;99.90
5834;DHT22;2943;48.012;10.968;2022-09-16T03:08:37;13.60;99.90
5834;DHT22;2943;48.012;10.968;2022-09-16T03:11:09;13.60;99.90
5834;DHT22;2943;48.012;10.968;2022-09-16T03:13:46;13.60;99.90
5834;DHT22;2943;48.012;10.968;2022-09-16T03:16:23;13.60;99.90
5834;DHT22;2943;48.012;10.968;2022-09-16T03:19:08;13.60;99.90
5834;DHT22;2943;48.012;10.968;2022-09-16T03:21:40;13.60;99.90
5834;DHT22;2943;48.012;10.968;2022-09-16T03:24:15;13.60;99.90
5834;DHT22;2943;48.012;10.968;2022-09-16T03:26:46;13.60;99.90
5834;DHT22;2943;48.012;10.968;2022-09-16T03:29:20;13.50;99.90
5834;DHT22;2943;48.012;10.968;2022-09-16T03:31:56;13.50;99.90
5834;DHT22;2943;48.012;10.968;2022-09-16T03:34:30;13.50;99.90
5834;DHT22;2943;48.012;10.968;2022-09-16T03:37:02;13.50;99.90
5834;DHT22;2943;48.012;10.968;2022-09-16T03:39:31;13.50;99.90
5834;DHT22;2943;48.012;10.968;2022-09-16T03:41:59;13.40;99.90
5834;DHT22;2943;48.012;10.968;2022-09-16T03:44:31;13.40;99.90
5834;DHT22;2943;48.012;10.968;2022-09-16T03:46:58;13.30;99.90
5834;DHT22;2943;48.012;10.968;2022-09-16T03:49:26;13.30;99.90
5834;DHT22;2943;48.012;10.968;2022-09-16T03:51:54;13.20;99.90
5834;DHT22;2943;48.012;10.968;2022-09-16T03:54:21;13.20;99.90
5834;DHT22;2943;48.012;10.968;2022-09-16T03:56:48;13.10;99.90
5834;DHT22;2943;48.012;10.968;2022-09-16T03:59:15;13.10;99.90
5834;DHT22;2943;48.012;10.968;2022-09-16T04:01:42;13.10;99.90
5834;DHT22;2943;48.012;10.968;2022-09-16T04:04:10;13.10;99.90
5834;DHT22;2943;48.012;10.968;2022-09-16T04:06:39;13.10;99.90
5834;DHT22;2943;48.012;10.968;2022-09-16T04:09:06;13.10;99.90
5834;DHT22;2943;48.012;10.968;2022-09-16T04:11:33;13.10;99.90
5834;DHT22;2943;48.012;10.968;2022-09-16T04:14:00;13.00;99.90
5834;DHT22;2943;48.012;10.968;2022-09-16T04:16:27;13.00;99.90
5834;DHT22;2943;48.012;10.968;2022-09-16T04:18:53;13.00;99.90
5834;DHT22;2943;48.012;10.968;2022-09-16T04:21:20;13.10;99.90
5834;DHT22;2943;48.012;10.968;2022-09-16T04:23:49;13.10;99.90
5834;DHT22;2943;48.012;10.968;2022-09-16T04:26:16;13.10;99.90
5834;DHT22;2943;48.012;10.968;2022-09-16T04:28:43;13.10;99.90
5834;DHT22;2943;48.012;10.968;2022-09-16T04:31:12;13.00;99.90
5834;DHT22;2943;48.012;10.968;2022-09-16T04:33:40;13.00;99.90
5834;DHT22;2943;48.012;10.968;2022-09-16T04:36:09;13.20;99.90
5834;DHT22;2943;48.012;10.968;2022-09-16T04:38:37;13.40;99.90
5834;DHT22;2943;48.012;10.968;2022-09-16T04:41:07;13.60;99.90
5834;DHT22;2943;48.012;10.968;2022-09-16T04:43:34;13.60;99.90
5834;DHT22;2943;48.012;10.968;2022-09-16T04:46:01;13.60;99.90
5834;DHT22;2943;48.012;10.968;2022-09-16T04:48:28;13.60;99.90
5834;DHT22;2943;48.012;10.968;2022-09-16T04:51:01;13.50;99.90
5834;DHT22;2943;48.012;10.968;2022-09-16T04:53:28;13.50;99.90
5834;DHT22;2943;48.012;10.968;2022-09-16T04:56:02;13.50;99.90
5834;DHT22;2943;48.012;10.968;2022-09-16T04:58:30;13.50;99.90
5834;DHT22;2943;48.012;10.968;2022-09-16T05:01:03;13.50;99.90
5834;DHT22;2943;48.012;10.968;2022-09-16T05:03:30;13.40;99.90
5834;DHT22;2943;48.012;10.968;2022-09-16T05:06:04;13.50;99.90
5834;DHT22;2943;48.012;10.968;2022-09-16T05:08:31;13.40;99.90
5834;DHT22;2943;48.012;10.968;2022-09-16T05:11:05;13.40;99.90
5834;DHT22;2943;48.012;10.968;2022-09-16T05:13:34;13.40;99.90
5834;DHT22;2943;48.012;10.968;2022-09-16T05:16:03;13.40;99.90
5834;DHT22;2943;48.012;10.968;2022-09-16T05:18:30;13.40;99.90
5834;DHT22;2943;48.012;10.968;2022-09-16T05:20:58;13.40;99.90
5834;DHT22;2943;48.012;10.968;2022-09-16T05:23:25;13.40;99.90
5834;DHT22;2943;48.012;10.968;2022-09-16T05:25:53;13.40;99.90
5834;DHT22;2943;48.012;10.968;2022-09-16T05:28:19;13.40;99.90
5834;DHT22;2943;48.012;10.968;2022-09-16T05:30:47;13.40;99.90
5834;DHT22;2943;48.012;10.968;2022-09-16T05:33:14;13.40;99.90
5834;DHT22;2943;48.012;10.968;2022-09-16T05:35:41;13.40;99.90
5834;DHT22;2943;48.012;10.968;2022-09-16T05:38:10;13.40;99.90
5834;DHT22;2943;48.012;10.968;2022-09-16T05:40:37;13.40;99.90
5834;DHT22;2943;48.012;10.968;2022-09-16T05:43:04;13.50;99.90
5834;DHT22;2943;48.012;10.968;2022-09-16T05:45:31;13.50;99.90
5834;DHT22;2943;48.012;10.968;2022-09-16T05:47:59;13.40;99.90
5834;DHT22;2943;48.012;10.968;2022-09-16T05:50:26;13.50;99.90
5834;DHT22;2943;48.012;10.968;2022-09-16T05:52:53;13.50;99.90
5834;DHT22;2943;48.012;10.968;2022-09-16T05:55:20;13.50;99.90
5834;DHT22;2943;48.012;10.968;2022-09-16T05:57:47;13.60;99.90
5834;DHT22;2943;48.012;10.968;2022-09-16T06:00:14;13.60;99.90
5834;DHT22;2943;48.012;10.968;2022-09-16T06:02:41;13.60;99.90
5834;DHT22;2943;48.012;10.968;2022-09-16T06:05:09;13.60;99.90
5834;DHT22;2943;48.012;10.968;2022-09-16T06:07:36;13.60;99.90
5834;DHT22;2943;48.012;10.968;2022-09-16T06:10:03;13.60;99.90
5834;DHT22;2943;48.012;10.968;2022-09-16T06:12:30;13.70;99.90
5834;DHT22;2943;48.012;10.968;2022-09-16T06:14:57;13.70;99.90
5834;DHT22;2943;48.012;10.968;2022-09-16T06:17:23;13.70;99.90
5834;DHT22;2943;48.012;10.968;2022-09-16T06:19:50;13.70;99.90
5834;DHT22;2943;48.012;10.968;2022-09-16T06:22:18;13.70;99.90
5834;DHT22;2943;48.012;10.968;2022-09-16T06:24:45;13.70;99.90
5834;DHT22;2943;48.012;10.968;2022-09-16T06:27:12;13.70;99.90
5834;DHT22;2943;48.012;10.968;2022-09-16T06:29:38;13.70;99.90
5834;DHT22;2943;48.012;10.968;2022-09-16T06:32:05;13.80;99.90
5834;DHT22;2943;48.012;10.968;2022-09-16T06:34:32;13.80;99.90
5834;DHT22;2943;48.012;10.968;2022-09-16T06:36:59;13.80;99.90
5834;DHT22;2943;48.012;10.968;2022-09-16T06:39:27;13.80;99.90
5834;DHT22;2943;48.012;10.968;2022-09-16T06:41:54;13.80;99.90
5834;DHT22;2943;48.012;10.968;2022-09-16T06:44:20;13.80;99.90
5834;DHT22;2943;48.012;10.968;2022-09-16T06:46:47;13.80;99.90
5834;DHT22;2943;48.012;10.968;2022-09-16T06:49:14;13.80;99.90
5834;DHT22;2943;48.012;10.968;2022-09-16T06:51:41;13.80;99.90
5834;DHT22;2943;48.012;10.968;2022-09-16T06:54:09;13.80;99.90
5834;DHT22;2943;48.012;10.968;2022-09-16T06:56:37;13.80;99.90
5834;DHT22;2943;48.012;10.968;2022-09-16T06:59:06;13.80;99.90
5834;DHT22;2943;48.012;10.968;2022-09-16T07:01:33;13.80;99.90
5834;DHT22;2943;48.012;10.968;2022-09-16T07:04:02;13.80;99.90
5834;DHT22;2943;48.012;10.968;2022-09-16T07:06:30;13.90;99.90
5834;DHT22;2943;48.012;10.968;2022-09-16T07:08:57;13.90;99.90
5834;DHT22;2943;48.012;10.968;2022-09-16T07:11:24;13.90;99.90
5834;DHT22;2943;48.012;10.968;2022-09-16T07:13:52;14.00;99.90
5834;DHT22;2943;48.012;10.968;2022-09-16T07:16:21;14.00;99.90
5834;DHT22;2943;48.012;10.968;2022-09-16T07:18:52;14.00;99.90
5834;DHT22;2943;48.012;10.968;2022-09-16T07:21:20;14.00;99.90
5834;DHT22;2943;48.012;10.968;2022-09-16T07:23:49;14.00;99.90
5834;DHT22;2943;48.012;10.968;2022-09-16T07:26:18;14.00;99.90
5834;DHT22;2943;48.012;10.968;2022-09-16T07:28:46;14.00;99.90
5834;DHT22;2943;48.012;10.968;2022-09-16T07:31:17;14.00;99.90
5834;DHT22;2943;48.012;10.968;2022-09-16T07:33:46;14.00;99.90
5834;DHT22;2943;48.012;10.968;2022-09-16T07:36:16;14.00;99.90
5834;DHT22;2943;48.012;10.968;2022-09-16T07:38:44;14.00;99.90
5834;DHT22;2943;48.012;10.968;2022-09-16T07:41:13;13.90;99.90
5834;DHT22;2943;48.012;10.968;2022-09-16T07:43:41;14.00;99.90
5834;DHT22;2943;48.012;10.968;2022-09-16T07:46:08;14.00;99.90
5834;DHT22;2943;48.012;10.968;2022-09-16T07:48:37;14.00;99.90
5834;DHT22;2943;48.012;10.968;2022-09-16T07:51:06;14.00;99.90
5834;DHT22;2943;48.012;10.968;2022-09-16T07:53:34;14.00;99.90
5834;DHT22;2943;48.012;10.968;2022-09-16T07:56:04;14.00;99.90
5834;DHT22;2943;48.012;10.968;2022-09-16T07:58:31;14.00;99.90
5834;DHT22;2943;48.012;10.968;2022-09-16T08:00:58;14.00;99.90
5834;DHT22;2943;48.012;10.968;2022-09-16T08:03:25;14.00;99.90
5834;DHT22;2943;48.012;10.968;2022-09-16T08:05:58;14.00;99.90
5834;DHT22;2943;48.012;10.968;2022-09-16T08:08:25;14.00;99.90
5834;DHT22;2943;48.012;10.968;2022-09-16T08:10:53;14.00;99.90
5834;DHT22;2943;48.012;10.968;2022-09-16T08:13:20;14.00;99.90
5834;DHT22;2943;48.012;10.968;2022-09-16T08:15:47;14.10;99.90
5834;DHT22;2943;48.012;10.968;2022-09-16T08:18:14;14.10;99.90
5834;DHT22;2943;48.012;10.968;2022-09-16T08:20:40;14.10;99.90
5834;DHT22;2943;48.012;10.968;2022-09-16T08:23:09;14.10;99.90
5834;DHT22;2943;48.012;10.968;2022-09-16T08:25:35;14.20;99.90
5834;DHT22;2943;48.012;10.968;2022-09-16T08:28:02;14.20;99.90
5834;DHT22;2943;48.012;10.968;2022-09-16T08:30:29;14.20;99.90
5834;DHT22;2943;48.012;10.968;2022-09-16T08:32:56;14.20;99.90
5834;DHT22;2943;48.012;10.968;2022-09-16T08:35:24;14.20;99.90
5834;DHT22;2943;48.012;10.968;2022-09-16T08:37:51;14.20;99.90
5834;DHT22;2943;48.012;10.968;2022-09-16T08:40:21;14.10;99.90
5834;DHT22;2943;48.012;10.968;2022-09-16T08:43:00;14.10;99.90
5834;DHT22;2943;48.012;10.968;2022-09-16T08:45:37;14.00;99.90
5834;DHT22;2943;48.012;10.968;2022-09-16T08:48:20;14.00;99.90
5834;DHT22;2943;48.012;10.968;2022-09-16T08:50:50;14.00;99.90
5834;DHT22;2943;48.012;10.968;2022-09-16T08:53:20;14.00;99.90
5834;DHT22;2943;48.012;10.968;2022-09-16T08:55:52;14.00;99.90
5834;DHT22;2943;48.012;10.968;2022-09-16T08:58:21;14.00;99.90
5834;DHT22;2943;48.012;10.968;2022-09-16T09:00:53;13.90;99.90
5834;DHT22;2943;48.012;10.968;2022-09-16T09:03:32;14.00;99.90
5834;DHT22;2943;48.012;10.968;2022-09-16T09:06:02;14.00;99.90
5834;DHT22;2943;48.012;10.968;2022-09-16T09:08:41;14.00;99.90
5834;DHT22;2943;48.012;10.968;2022-09-16T09:11:18;14.10;99.90
5834;DHT22;2943;48.012;10.968;2022-09-16T09:13:59;14.10;99.90
5834;DHT22;2943;48.012;10.968;2022-09-16T09:16:36;14.10;99.90
5834;DHT22;2943;48.012;10.968;2022-09-16T09:19:19;14.10;99.90
5834;DHT22;2943;48.012;10.968;2022-09-16T09:21:53;14.10;99.90
5834;DHT22;2943;48.012;10.968;2022-09-16T09:24:36;14.10;99.90
5834;DHT22;2943;48.012;10.968;2022-09-16T09:27:13;14.10;99.90
5834;DHT22;2943;48.012;10.968;2022-09-16T09:29:51;14.10;99.90
5834;DHT22;2943;48.012;10.968;2022-09-16T09:32:31;14.10;99.90
5834;DHT22;2943;48.012;10.968;2022-09-16T09:35:11;14.10;99.90
5834;DHT22;2943;48.012;10.968;2022-09-16T09:38:04;14.10;99.90
5834;DHT22;2943;48.012;10.968;2022-09-16T09:40:39;14.10;99.90
5834;DHT22;2943;48.012;10.968;2022-09-16T09:43:12;14.20;99.90
5834;DHT22;2943;48.012;10.968;2022-09-16T09:45:44;14.20;99.90
5834;DHT22;2943;48.012;10.968;2022-09-16T09:48:18;14.20;99.90
5834;DHT22;2943;48.012;10.968;2022-09-16T09:50:47;14.10;99.90
5834;DHT22;2943;48.012;10.968;2022-09-16T09:53:18;14.20;99.90
5834;DHT22;2943;48.012;10.968;2022-09-16T09:55:47;14.20;99.90
5834;DHT22;2943;48.012;10.968;2022-09-16T09:58:22;14.20;99.90
5834;DHT22;2943;48.012;10.968;2022-09-16T10:00:51;14.20;99.90
5834;DHT22;2943;48.012;10.968;2022-09-16T10:03:20;14.20;99.90
5834;DHT22;2943;48.012;10.968;2022-09-16T10:05:47;14.20;99.90
5834;DHT22;2943;48.012;10.968;2022-09-16T10:08:23;14.20;99.90
5834;DHT22;2943;48.012;10.968;2022-09-16T10:10:53;14.20;99.90
5834;DHT22;2943;48.012;10.968;2022-09-16T10:13:23;14.30;99.90
5834;DHT22;2943;48.012;10.968;2022-09-16T10:15:53;14.30;99.90
5834;DHT22;2943;48.012;10.968;2022-09-16T10:18:25;14.30;99.90
5834;DHT22;2943;48.012;10.968;2022-09-16T10:20:58;14.40;99.90
5834;DHT22;2943;48.012;10.968;2022-09-16T10:23:26;14.40;99.90
5834;DHT22;2943;48.012;10.968;2022-09-16T10:26:03;14.50;99.90
5834;DHT22;2943;48.012;10.968;2022-09-16T10:28:32;14.50;99.90
5834;DHT22;2943;48.012;10.968;2022-09-16T10:30:59;14.50;99.90
5834;DHT22;2943;48.012;10.968;2022-09-16T10:33:29;14.60;99.90
5834;DHT22;2943;48.012;10.968;2022-09-16T10:35:58;14.60;99.90
5834;DHT22;2943;48.012;10.968;2022-09-16T10:38:32;14.60;99.90
5834;DHT22;2943;48.012;10.968;2022-09-16T10:41:05;14.70;99.90
5834;DHT22;2943;48.012;10.968;2022-09-16T10:43:36;14.90;99.90
5834;DHT22;2943;48.012;10.968;2022-09-16T10:46:04;15.10;99.90
5834;DHT22;2943;48.012;10.968;2022-09-16T10:48:33;15.20;99.90
5834;DHT22;2943;48.012;10.968;2022-09-16T10:51:02;15.30;99.90
5834;DHT22;2943;48.012;10.968;2022-09-16T10:53:32;15.30;99.90
5834;DHT22;2943;48.012;10.968;2022-09-16T10:56:00;15.30;99.90
5834;DHT22;2943;48.012;10.968;2022-09-16T10:58:28;15.30;99.90
5834;DHT22;2943;48.012;10.968;2022-09-16T11:01:03;15.30;99.90
5834;DHT22;2943;48.012;10.968;2022-09-16T11:04:03;15.30;99.90
5834;DHT22;2943;48.012;10.968;2022-09-16T11:06:50;15.20;99.90
5834;DHT22;2943;48.012;10.968;2022-09-16T11:09:27;15.20;99.90
5834;DHT22;2943;48.012;10.968;2022-09-16T11:12:06;14.80;99.90
5834;DHT22;2943;48.012;10.968;2022-09-16T11:14:44;14.20;99.90
5834;DHT22;2943;48.012;10.968;2022-09-16T11:17:28;13.60;99.90
5834;DHT22;2943;48.012;10.968;2022-09-16T11:20:20;13.10;99.90
5834;DHT22;2943;48.012;10.968;2022-09-16T11:22:55;12.70;99.90
5834;DHT22;2943;48.012;10.968;2022-09-16T11:25:35;12.50;99.90
5834;DHT22;2943;48.012;10.968;2022-09-16T11:28:16;12.30;99.90
5834;DHT22;2943;48.012;10.968;2022-09-16T11:30:54;12.20;99.90
5834;DHT22;2943;48.012;10.968;2022-09-16T11:33:30;12.10;99.90
5834;DHT22;2943;48.012;10.968;2022-09-16T11:36:10;12.00;99.90
5834;DHT22;2943;48.012;10.968;2022-09-16T11:38:46;11.90;99.90
5834;DHT22;2943;48.012;10.968;2022-09-16T11:41:29;11.90;99.90
5834;DHT22;2943;48.012;10.968;2022-09-16T11:44:25;11.80;99.90
5834;DHT22;2943;48.012;10.968;2022-09-16T11:47:04;11.80;99.90
5834;DHT22;2943;48.012;10.968;2022-09-16T11:49:52;11.60;99.90
5834;DHT22;2943;48.012;10.968;2022-09-16T11:52:31;11.50;99.90
5834;DHT22;2943;48.012;10.968;2022-09-16T11:55:18;11.40;99.90
5834;DHT22;2943;48.012;10.968;2022-09-16T11:57:51;11.40;99.90
5834;DHT22;2943;48.012;10.968;2022-09-16T12:00:19;11.40;99.90
5834;DHT22;2943;48.012;10.968;2022-09-16T12:02:54;11.50;99.90
5834;DHT22;2943;48.012;10.968;2022-09-16T12:05:26;11.50;99.90
5834;DHT22;2943;48.012;10.968;2022-09-16T12:08:00;11.50;99.90
5834;DHT22;2943;48.012;10.968;2022-09-16T12:10:35;11.50;99.90
5834;DHT22;2943;48.012;10.968;2022-09-16T12:13:07;11.50;99.90
5834;DHT22;2943;48.012;10.968;2022-09-16T12:15:39;11.40;99.90
5834;DHT22;2943;48.012;10.968;2022-09-16T12:18:12;11.30;99.90
5834;DHT22;2943;48.012;10.968;2022-09-16T12:20:45;11.20;99.90
5834;DHT22;2943;48.012;10.968;2022-09-16T12:23:16;11.20;99.90
5834;DHT22;2943;48.012;10.968;2022-09-16T12:25:46;11.20;99.90
5834;DHT22;2943;48.012;10.968;2022-09-16T12:28:19;11.20;99.90
5834;DHT22;2943;48.012;10.968;2022-09-16T12:31:11;11.20;99.90
5834;DHT22;2943;48.012;10.968;2022-09-16T12:33:43;11.20;99.90
5834;DHT22;2943;48.012;10.968;2022-09-16T12:36:14;11.20;99.90
5834;DHT22;2943;48.012;10.968;2022-09-16T12:38:44;11.20;99.90
5834;DHT22;2943;48.012;10.968;2022-09-16T12:41:24;11.20;99.90
5834;DHT22;2943;48.012;10.968;2022-09-16T12:44:06;11.20;99.90
5834;DHT22;2943;48.012;10.968;2022-09-16T12:46:52;11.20;99.90
5834;DHT22;2943;48.012;10.968;2022-09-16T12:49:55;11.30;99.90
5834;DHT22;2943;48.012;10.968;2022-09-16T12:52:43;11.30;99.90
5834;DHT22;2943;48.012;10.968;2022-09-16T12:55:35;11.30;99.90
5834;DHT22;2943;48.012;10.968;2022-09-16T12:58:22;11.30;99.90
5834;DHT22;2943;48.012;10.968;2022-09-16T13:00:59;11.40;99.90
5834;DHT22;2943;48.012;10.968;2022-09-16T13:03:31;11.50;99.90
5834;DHT22;2943;48.012;10.968;2022-09-16T13:06:05;11.50;99.90
5834;DHT22;2943;48.012;10.968;2022-09-16T13:08:34;11.50;99.90
5834;DHT22;2943;48.012;10.968;2022-09-16T13:11:05;11.50;99.90
5834;DHT22;2943;48.012;10.968;2022-09-16T13:13:34;11.50;99.90
5834;DHT22;2943;48.012;10.968;2022-09-16T13:16:03;11.50;99.90
5834;DHT22;2943;48.012;10.968;2022-09-16T13:18:39;11.50;99.90
5834;DHT22;2943;48.012;10.968;2022-09-16T13:21:17;11.50;99.90
5834;DHT22;2943;48.012;10.968;2022-09-16T13:23:52;11.50;99.90
5834;DHT22;2943;48.012;10.968;2022-09-16T13:26:21;11.50;99.90
5834;DHT22;2943;48.012;10.968;2022-09-16T13:28:47;11.50;99.90
5834;DHT22;2943;48.012;10.968;2022-09-16T13:31:16;11.50;99.90
5834;DHT22;2943;48.012;10.968;2022-09-16T13:33:45;11.60;99.90
5834;DHT22;2943;48.012;10.968;2022-09-16T13:36:28;11.50;99.90
5834;DHT22;2943;48.012;10.968;2022-09-16T13:38:58;11.40;99.90
5834;DHT22;2943;48.012;10.968;2022-09-16T13:41:31;11.40;99.90
5834;DHT22;2943;48.012;10.968;2022-09-16T13:43:59;11.40;99.90
5834;DHT22;2943;48.012;10.968;2022-09-16T13:46:32;11.40;99.90
5834;DHT22;2943;48.012;10.968;2022-09-16T13:49:15;11.40;99.90
5834;DHT22;2943;48.012;10.968;2022-09-16T13:51:45;11.40;99.90
5834;DHT22;2943;48.012;10.968;2022-09-16T13:54:25;11.40;99.90
5834;DHT22;2943;48.012;10.968;2022-09-16T13:57:09;11.30;99.90
5834;DHT22;2943;48.012;10.968;2022-09-16T13:59:54;11.40;99.90
5834;DHT22;2943;48.012;10.968;2022-09-16T14:02:31;11.40;99.90
5834;DHT22;2943;48.012;10.968;2022-09-16T14:05:29;11.40;99.90
5834;DHT22;2943;48.012;10.968;2022-09-16T14:08:04;11.50;99.90
5834;DHT22;2943;48.012;10.968;2022-09-16T14:10:41;11.50;99.90
5834;DHT22;2943;48.012;10.968;2022-09-16T14:13:11;11.60;99.90
5834;DHT22;2943;48.012;10.968;2022-09-16T14:15:42;11.60;99.90
5834;DHT22;2943;48.012;10.968;2022-09-16T14:18:15;11.70;99.90
5834;DHT22;2943;48.012;10.968;2022-09-16T14:20:53;11.70;99.90
5834;DHT22;2943;48.012;10.968;2022-09-16T14:23:24;11.70;99.90
5834;DHT22;2943;48.012;10.968;2022-09-16T14:25:52;11.80;99.90
5834;DHT22;2943;48.012;10.968;2022-09-16T14:28:21;11.90;99.90
5834;DHT22;2943;48.012;10.968;2022-09-16T14:30:51;11.90;99.90
5834;DHT22;2943;48.012;10.968;2022-09-16T14:33:22;12.00;99.90
5834;DHT22;2943;48.012;10.968;2022-09-16T14:35:52;12.00;99.90
5834;DHT22;2943;48.012;10.968;2022-09-16T14:38:21;12.00;99.90
5834;DHT22;2943;48.012;10.968;2022-09-16T14:40:49;12.00;99.90
5834;DHT22;2943;48.012;10.968;2022-09-16T14:43:19;12.10;99.90
5834;DHT22;2943;48.012;10.968;2022-09-16T14:45:49;12.00;99.90
5834;DHT22;2943;48.012;10.968;2022-09-16T14:48:18;12.10;99.90
5834;DHT22;2943;48.012;10.968;2022-09-16T14:50:46;12.10;99.90
5834;DHT22;2943;48.012;10.968;2022-09-16T14:53:23;12.20;99.90
5834;DHT22;2943;48.012;10.968;2022-09-16T14:55:50;12.20;99.90
5834;DHT22;2943;48.012;10.968;2022-09-16T14:58:19;12.20;99.90
5834;DHT22;2943;48.012;10.968;2022-09-16T15:00:50;12.20;99.90
5834;DHT22;2943;48.012;10.968;2022-09-16T15:03:21;12.30;99.90
5834;DHT22;2943;48.012;10.968;2022-09-16T15:05:49;12.30;99.90
5834;DHT22;2943;48.012;10.968;2022-09-16T15:08:19;12.30;99.90
5834;DHT22;2943;48.012;10.968;2022-09-16T15:10:51;12.30;99.90
5834;DHT22;2943;48.012;10.968;2022-09-16T15:13:22;12.30;99.90
5834;DHT22;2943;48.012;10.968;2022-09-16T15:15:52;12.30;99.90
5834;DHT22;2943;48.012;10.968;2022-09-16T15:18:22;12.30;99.90
5834;DHT22;2943;48.012;10.968;2022-09-16T15:20:53;12.30;99.90
5834;DHT22;2943;48.012;10.968;2022-09-16T15:23:24;12.30;99.90
5834;DHT22;2943;48.012;10.968;2022-09-16T15:25:54;12.30;99.90
5834;DHT22;2943;48.012;10.968;2022-09-16T15:28:23;12.30;99.90
5834;DHT22;2943;48.012;10.968;2022-09-16T15:30:52;12.30;99.90
5834;DHT22;2943;48.012;10.968;2022-09-16T15:33:24;12.30;99.90
5834;DHT22;2943;48.012;10.968;2022-09-16T15:35:51;12.30;99.90
5834;DHT22;2943;48.012;10.968;2022-09-16T15:38:20;12.40;99.90
5834;DHT22;2943;48.012;10.968;2022-09-16T15:40:51;12.30;99.90
5834;DHT22;2943;48.012;10.968;2022-09-16T15:43:28;12.40;99.90
5834;DHT22;2943;48.012;10.968;2022-09-16T15:45:58;12.30;99.90
5834;DHT22;2943;48.012;10.968;2022-09-16T15:48:29;12.30;99.90
5834;DHT22;2943;48.012;10.968;2022-09-16T15:50:59;12.30;99.90
5834;DHT22;2943;48.012;10.968;2022-09-16T15:53:38;12.30;99.90
5834;DHT22;2943;48.012;10.968;2022-09-16T15:56:16;12.30;99.90
5834;DHT22;2943;48.012;10.968;2022-09-16T15:58:47;12.30;99.90
5834;DHT22;2943;48.012;10.968;2022-09-16T16:01:16;12.30;99.90
5834;DHT22;2943;48.012;10.968;2022-09-16T16:03:52;12.30;99.90
5834;DHT22;2943;48.012;10.968;2022-09-16T16:06:20;12.20;99.90
5834;DHT22;2943;48.012;10.968;2022-09-16T16:09:37;12.20;99.90
5834;DHT22;2943;48.012;10.968;2022-09-16T16:12:07;12.20;99.90
5834;DHT22;2943;48.012;10.968;2022-09-16T16:14:35;12.20;99.90
5834;DHT22;2943;48.012;10.968;2022-09-16T16:17:05;12.30;99.90